createdAt,value
2023-02-25T00:00:25.944Z,95.99
2023-02-25T00:05:25.890Z,95.57
2023-02-25T00:10:25.894Z,95.78
2023-02-25T00:15:25.737Z,95.06
2023-02-25T00:20:25.656Z,96.55
2023-02-25T00:25:25.628Z,96.97
2023-02-25T00:30:25.572Z,96.29
2023-02-25T00:35:25.495Z,97.02
2023-02-25T00:40:25.406Z,97.22
2023-02-25T00:45:25.387Z,97.22
2023-02-25T00:50:25.285Z,97.02
2023-02-25T00:55:25.240Z,96.91
2023-02-25T01:00:25.161Z,97.02
2023-02-25T01:05:44.174Z,96.91
2023-02-25T01:10:36.534Z,96.81
2023-02-25T01:15:36.484Z,96.91
2023-02-25T01:20:36.506Z,95.67
2023-02-25T01:25:36.337Z,95.98
2023-02-25T01:30:36.438Z,96.08
2023-02-25T01:35:36.200Z,96.29
2023-02-25T01:40:36.180Z,96.08
2023-02-25T01:45:36.086Z,95.98
2023-02-25T01:50:36.048Z,95.67
2023-02-25T01:55:35.960Z,95.77
2023-02-25T02:00:36.073Z,95.56
2023-02-25T02:05:35.836Z,95.67
2023-02-25T02:10:35.798Z,95.36
2023-02-25T02:15:35.720Z,94.84
2023-02-25T02:20:35.688Z,95.36
2023-02-25T02:25:35.582Z,95.56
2023-02-25T02:30:35.598Z,94.84
2023-02-25T02:35:35.431Z,95.77
2023-02-25T02:40:35.424Z,94.63
2023-02-25T02:45:35.403Z,94.53
2023-02-25T02:50:35.253Z,94.42
2023-02-25T02:55:35.203Z,94.05
2023-02-25T03:00:35.167Z,94.36
2023-02-25T03:05:35.039Z,94.98
2023-02-25T03:10:35.030Z,95.09
2023-02-25T03:15:34.984Z,94.46
2023-02-25T03:20:36.292Z,95.09
2023-02-25T03:25:34.849Z,95.29
2023-02-25T03:30:34.795Z,94.57
2023-02-25T03:35:34.670Z,94.78
2023-02-25T03:40:34.613Z,95.50
2023-02-25T03:45:34.568Z,93.95
2023-02-25T03:50:34.479Z,94.15
2023-02-25T03:55:34.512Z,94.67
2023-02-25T04:00:34.358Z,95.13
2023-02-25T04:05:34.323Z,94.57
2023-02-25T04:10:34.250Z,95.61
2023-02-25T04:15:34.237Z,95.81
2023-02-25T04:20:34.103Z,96.33
2023-02-25T04:25:34.744Z,96.17
2023-02-25T04:30:34.451Z,96.89
2023-02-25T04:35:33.916Z,96.58
2023-02-25T04:40:33.822Z,96.37
2023-02-25T04:45:33.800Z,95.34
2023-02-25T04:50:33.711Z,95.96
2023-02-25T04:55:33.642Z,95.96
2023-02-25T05:00:33.595Z,96.58
2023-02-25T05:05:33.525Z,96.06
2023-02-25T05:10:33.443Z,95.54
2023-02-25T05:15:47.851Z,95.65
2023-02-25T05:20:40.240Z,95.23
2023-02-25T05:25:40.176Z,97.62
2023-02-25T05:30:40.772Z,96.89
2023-02-25T05:35:40.147Z,98.45
2023-02-25T05:40:39.971Z,99.43
2023-02-25T05:45:39.901Z,99.33
2023-02-25T05:50:39.829Z,99.33
2023-02-25T05:55:39.754Z,99.54
2023-02-25T06:00:39.699Z,99.74
2023-02-25T06:05:39.616Z,99.33
2023-02-25T06:10:39.601Z,99.22
2023-02-25T06:15:39.512Z,99.74
2023-02-25T06:20:39.443Z,98.91
2023-02-25T06:25:39.358Z,99.33
2023-02-25T06:30:39.338Z,99.85
2023-02-25T06:35:39.249Z,99.99
2023-02-25T06:40:39.183Z,99.99
2023-02-25T06:45:39.146Z,99.99
2023-02-25T06:50:39.076Z,99.99
2023-02-25T06:55:38.980Z,99.99
2023-02-25T07:00:38.947Z,99.85
2023-02-25T07:05:38.850Z,99.99
2023-02-25T07:10:38.792Z,99.99
2023-02-25T07:15:38.781Z,99.80
2023-02-25T07:20:38.659Z,99.38
2023-02-25T07:25:38.601Z,98.76
2023-02-25T07:30:38.579Z,99.18
2023-02-25T07:35:38.514Z,98.45
2023-02-25T07:40:38.400Z,98.72
2023-02-25T07:45:38.361Z,98.51
2023-02-25T07:50:38.315Z,98.20
2023-02-25T07:55:38.232Z,97.27
2023-02-25T08:00:38.170Z,98.26
2023-02-25T08:05:38.085Z,97.58
2023-02-25T08:10:38.038Z,96.95
2023-02-25T08:15:38.070Z,97.43
2023-02-25T08:20:37.887Z,97.85
2023-02-25T08:25:37.831Z,96.91
2023-02-25T08:30:37.806Z,97.64
2023-02-25T08:35:37.721Z,96.60
2023-02-25T08:40:37.678Z,97.68
2023-02-25T08:45:37.571Z,97.74
2023-02-25T08:50:37.530Z,97.02
2023-02-25T08:55:37.445Z,97.69
2023-02-25T09:00:37.453Z,97.03
2023-02-25T09:05:37.305Z,94.97
2023-02-25T09:10:49.484Z,91.32
2023-02-25T09:15:38.194Z,89.79
2023-02-25T09:20:37.118Z,87.15
2023-02-25T09:25:37.057Z,87.07
2023-02-25T09:30:37.160Z,87.89
2023-02-25T09:35:36.945Z,85.13
2023-02-25T09:40:36.945Z,73.16
2023-02-25T09:45:36.869Z,69.89
2023-02-25T09:50:36.915Z,63.56
2023-02-25T09:55:36.754Z,62.41
2023-02-25T10:00:36.645Z,61.07
2023-02-25T10:05:36.615Z,62.55
2023-02-25T10:10:36.486Z,67.71
2023-02-25T10:15:36.411Z,75.18
2023-02-25T10:20:36.355Z,81.31
2023-02-25T10:25:36.255Z,83.76
2023-02-25T10:30:36.342Z,87.29
2023-02-25T10:35:36.130Z,90.44
2023-02-25T10:40:36.073Z,92.85
2023-02-25T10:45:36.044Z,92.67
2023-02-25T10:50:45.492Z,92.27
2023-02-25T10:55:36.901Z,90.84
2023-02-25T11:00:35.844Z,92.91
2023-02-25T11:05:35.737Z,94.43
2023-02-25T11:10:35.680Z,91.90
2023-02-25T11:15:44.683Z,92.57
2023-02-25T11:20:36.555Z,92.05
2023-02-25T11:25:35.468Z,91.55
2023-02-25T11:30:35.471Z,85.86
2023-02-25T11:35:35.349Z,76.07
2023-02-25T11:40:35.334Z,70.78
2023-02-25T11:45:35.214Z,77.85
2023-02-25T11:50:35.140Z,82.14
2023-02-25T11:55:35.054Z,79.77
2023-02-25T12:00:35.020Z,73.91
2023-02-25T12:05:35.011Z,62.61
2023-02-25T12:10:34.879Z,75.97
2023-02-25T12:15:34.804Z,82.92
2023-02-25T12:20:34.718Z,87.93
2023-02-25T12:25:34.664Z,88.14
2023-02-25T12:30:34.676Z,86.32
2023-02-25T12:35:34.531Z,82.45
2023-02-25T12:40:34.520Z,71.73
2023-02-25T12:45:34.459Z,75.49
2023-02-25T12:50:34.390Z,79.07
2023-02-25T12:55:34.354Z,81.00
2023-02-25T13:00:34.262Z,78.18
2023-02-25T13:05:34.197Z,79.62
2023-02-25T13:10:34.116Z,78.69
2023-02-25T13:15:34.024Z,79.93
2023-02-25T13:20:33.960Z,76.60
2023-02-25T13:25:33.895Z,78.15
2023-02-25T13:30:33.834Z,79.39
2023-02-25T13:35:33.885Z,79.43
2023-02-25T13:40:33.721Z,80.53
2023-02-25T13:45:33.765Z,79.60
2023-02-25T13:50:33.553Z,80.80
2023-02-25T13:55:33.497Z,77.70
2023-02-25T14:00:33.474Z,80.39
2023-02-25T14:05:33.393Z,79.63
2023-02-25T14:10:33.311Z,77.15
2023-02-25T14:15:33.231Z,73.78
2023-02-25T14:20:33.204Z,75.25
2023-02-25T14:25:33.314Z,72.20
2023-02-25T14:30:33.282Z,73.71
2023-02-25T14:35:32.984Z,73.88
2023-02-25T14:40:32.934Z,74.26
2023-02-25T14:45:32.833Z,74.29
2023-02-25T14:50:32.788Z,75.26
2023-02-25T14:55:32.696Z,74.63
2023-02-25T15:00:32.652Z,70.64
2023-02-25T15:05:32.538Z,73.43
2023-02-25T15:10:32.715Z,73.43
2023-02-25T15:15:32.542Z,68.71
2023-02-25T15:20:32.364Z,69.67
2023-02-25T15:25:32.299Z,69.43
2023-02-25T15:30:32.257Z,66.77
2023-02-25T15:35:32.189Z,66.87
2023-02-25T15:40:32.122Z,65.42
2023-02-25T15:45:32.024Z,66.46
2023-02-25T15:50:31.984Z,62.84
2023-02-25T15:55:31.994Z,60.06
2023-02-25T16:00:31.939Z,63.28
2023-02-25T16:05:31.774Z,63.20
2023-02-25T16:10:31.711Z,63.72
2023-02-25T16:15:31.641Z,63.93
2023-02-25T16:20:31.596Z,64.69
2023-02-25T16:25:31.507Z,65.41
2023-02-25T16:30:32.329Z,68.13
2023-02-25T16:35:31.387Z,66.20
2023-02-25T16:40:31.391Z,67.76
2023-02-25T16:45:31.310Z,67.79
2023-02-25T16:50:31.204Z,66.96
2023-02-25T16:55:31.514Z,64.07
2023-02-25T17:00:31.071Z,67.50
2023-02-25T17:05:30.996Z,65.04
2023-02-25T17:10:30.929Z,66.71
2023-02-25T17:15:30.871Z,66.74
2023-02-25T17:20:30.821Z,64.89
2023-02-25T17:25:30.762Z,64.06
2023-02-25T17:30:30.722Z,65.10
2023-02-25T17:35:30.615Z,66.77
2023-02-25T17:40:30.552Z,66.80
2023-02-25T17:45:32.437Z,68.77
2023-02-25T17:50:30.444Z,70.33
2023-02-25T17:55:30.384Z,74.84
2023-02-25T18:00:30.273Z,77.10
2023-02-25T18:05:31.412Z,75.32
2023-02-25T18:10:30.182Z,72.51
2023-02-25T18:15:30.226Z,76.51
2023-02-25T18:20:30.025Z,76.51
2023-02-25T18:25:30.044Z,76.51
2023-02-25T18:30:29.987Z,79.25
2023-02-25T18:35:29.875Z,78.94
2023-02-25T18:40:30.099Z,77.03
2023-02-25T18:45:29.739Z,80.16
2023-02-25T18:50:29.602Z,81.83
2023-02-25T18:55:29.589Z,79.99
2023-02-25T19:00:29.513Z,79.68
2023-02-25T19:05:29.480Z,80.09
2023-02-25T19:10:29.368Z,81.45
2023-02-25T19:15:29.348Z,81.97
2023-02-25T19:20:29.241Z,82.60
2023-02-25T19:25:29.228Z,82.70
2023-02-25T19:30:29.170Z,82.07
2023-02-25T19:35:29.094Z,80.82
2023-02-25T19:40:29.010Z,80.13
2023-02-25T19:45:28.945Z,79.71
2023-02-25T19:50:28.879Z,81.18
2023-02-25T19:55:28.840Z,79.96
2023-02-25T20:00:28.708Z,79.96
2023-02-25T20:05:28.694Z,82.26
2023-02-25T20:10:28.615Z,80.73
2023-02-25T20:15:28.592Z,80.41
2023-02-25T20:20:28.478Z,80.31
2023-02-25T20:25:28.429Z,82.75
2023-02-25T20:30:28.394Z,82.43
2023-02-25T20:35:28.349Z,82.75
2023-02-25T20:40:28.233Z,83.94
2023-02-25T20:45:28.184Z,84.50
2023-02-25T20:50:28.121Z,84.08
2023-02-25T20:55:28.062Z,85.44
2023-02-25T21:00:28.978Z,85.24
2023-02-25T21:05:27.911Z,84.19
2023-02-25T21:10:27.845Z,83.66
2023-02-25T21:15:28.738Z,83.03
2023-02-25T21:20:27.726Z,85.75
2023-02-25T21:25:27.672Z,87.05
2023-02-25T21:30:27.721Z,88.21
2023-02-25T21:35:27.551Z,89.09
2023-02-25T21:40:27.470Z,89.72
2023-02-25T21:45:27.379Z,90.91
2023-02-25T21:50:27.323Z,90.91
2023-02-25T21:55:27.293Z,90.91
2023-02-25T22:00:27.199Z,91.96
2023-02-25T22:05:27.143Z,91.75
2023-02-25T22:10:27.164Z,91.05
2023-02-25T22:15:27.039Z,91.16
2023-02-25T22:20:27.013Z,91.05
2023-02-25T22:25:26.926Z,90.64
2023-02-25T22:30:26.838Z,90.07
2023-02-25T22:35:27.001Z,88.60
2023-02-25T22:40:26.738Z,87.66
2023-02-25T22:45:26.660Z,86.61
2023-02-25T22:50:26.583Z,86.88
2023-02-25T22:55:26.584Z,86.57
2023-02-25T23:00:26.467Z,86.05
2023-02-25T23:05:26.377Z,85.73
2023-02-25T23:10:26.341Z,86.05
2023-02-25T23:15:26.227Z,86.36
2023-02-25T23:20:26.197Z,89.23
2023-02-25T23:25:26.123Z,89.59
2023-02-25T23:30:26.055Z,88.85
2023-02-25T23:35:26.025Z,89.00
2023-02-25T23:40:25.925Z,88.57
2023-02-25T23:45:25.882Z,87.63
2023-02-25T23:50:25.798Z,87.21
2023-02-25T23:55:25.767Z,87.95
